PWSweather.com
Personal Weather Stations
Station Observations
KCANORTH19
Rocking L Ranch, North Fork, CA

Rocking L RanchNorth Fork, CA

Lat: 37.248, Lon: -119.56

Elevation: 3093

Station Type: Davis Vantage Pro 2

Latest ConditionsUpdated 5:30:04 AM PDT Thursday, Jul 2, 2015
Currently Today's Max Today's Min Today's Average
Temperature 71.1°F21.7°C 80.7°F27.1°C 71.1°F21.7°C 74.7°F23.7°C
Dew Point 63.2°F17.3°C 63.5°F17.5°C 50.0°F10.0°C 57.4°F14.1°C
Winds Calm Calm 8.0 mph N12.9 kmh N - 1.3 mph 2.1 kmh
Wind Gusts 2.0 mph3.2 kmh 25.0 mph40.2 kmh - -
Humidity 76% 76% 41% 56%
Pressure 29.80 in1009.1 mb 29.85 in1010.8 mb 29.76 in1007.8 mb -
Hour Temp Dew Point Humidity Winds Wind Gusts Pressure Precip Precip Rate Daily Precip Total
05:30 AM 71.1°F21.7°C 63.2°F17.3°C 76% Calm Calm 2.0 mph3.2 kmh 29.80 in1009.1 mb 0.01 in0.3 mm 0.00 in0.0 mm 0.03 in0.8 mm
05:25 AM 71.4°F21.9°C 63.5°F17.5°C 76% Calm Calm 2.0 mph3.2 kmh 29.80 in1009.1 mb 0.01 in0.3 mm 0.00 in0.0 mm 0.03 in0.8 mm
05:20 AM 71.7°F22.1°C 63.4°F17.4°C 75% Calm Calm 2.0 mph3.2 kmh 29.79 in1008.8 mb 0.01 in0.3 mm 0.00 in0.0 mm 0.03 in0.8 mm
05:15 AM 72.1°F22.3°C 63.4°F17.4°C 74% Calm Calm 2.0 mph3.2 kmh 29.80 in1009.1 mb 0.01 in0.3 mm 0.00 in0.0 mm 0.03 in0.8 mm
05:10 AM 72.3°F22.4°C 63.2°F17.3°C 73% Calm Calm -- 29.79 in1008.8 mb 0.01 in0.3 mm 0.00 in0.0 mm 0.03 in0.8 mm
05:05 AM 72.4°F22.4°C 62.5°F16.9°C 71% Calm Calm -- 29.79 in1008.8 mb 0.01 in0.3 mm 0.00 in0.0 mm 0.03 in0.8 mm
05:00 AM 72.5°F22.5°C 62.2°F16.8°C 70% Calm Calm 4.0 mph6.4 kmh 29.79 in1008.8 mb 0.01 in0.3 mm 0.00 in0.0 mm 0.03 in0.8 mm
04:55 AM 72.6°F22.6°C 61.4°F16.3°C 68% Calm Calm 4.0 mph6.4 kmh 29.79 in1008.8 mb 0.01 in0.3 mm 0.12 in3.0 mm 0.03 in0.8 mm
04:50 AM 72.7°F22.6°C 61.1°F16.2°C 67% Calm Calm 4.0 mph6.4 kmh 29.78 in1008.5 mb 0.00 in0.0 mm 0.00 in0.0 mm 0.02 in0.5 mm
04:45 AM 72.8°F22.7°C 61.6°F16.4°C 68% Calm Calm 4.0 mph6.4 kmh 29.78 in1008.5 mb 0.00 in0.0 mm 0.00 in0.0 mm 0.02 in0.5 mm
04:40 AM 73.0°F22.8°C 61.8°F16.6°C 68% 4.0 mph S6.4 kmh S 4.0 mph6.4 kmh 29.77 in1008.1 mb 0.00 in0.0 mm 0.00 in0.0 mm 0.02 in0.5 mm
04:35 AM 73.3°F22.9°C 62.1°F16.7°C 68% 1.0 mph SW1.6 kmh SW 3.0 mph4.8 kmh 29.76 in1007.8 mb 0.00 in0.0 mm 0.00 in0.0 mm 0.02 in0.5 mm
04:30 AM 73.5°F23.1°C 61.5°F16.4°C 66% Calm Calm 3.0 mph4.8 kmh 29.77 in1008.1 mb 0.00 in0.0 mm 0.00 in0.0 mm 0.02 in0.5 mm
04:25 AM 73.8°F23.2°C 61.3°F16.3°C 65% Calm Calm 3.0 mph4.8 kmh 29.77 in1008.1 mb 0.00 in0.0 mm 0.00 in0.0 mm 0.02 in0.5 mm
04:20 AM 73.9°F23.3°C 61.0°F16.1°C 64% Calm Calm 1.0 mph1.6 kmh 29.77 in1008.1 mb 0.00 in0.0 mm 0.00 in0.0 mm 0.02 in0.5 mm
04:15 AM 74.3°F23.5°C 60.9°F16.1°C 63% Calm Calm 1.0 mph1.6 kmh 29.78 in1008.5 mb 0.00 in0.0 mm 0.00 in0.0 mm 0.02 in0.5 mm
04:10 AM 74.7°F23.7°C 61.3°F16.3°C 63% Calm Calm 1.0 mph1.6 kmh 29.78 in1008.5 mb 0.00 in0.0 mm 0.00 in0.0 mm 0.02 in0.5 mm
04:05 AM 75.1°F23.9°C 61.2°F16.2°C 62% Calm Calm 1.0 mph1.6 kmh 29.78 in1008.5 mb 0.00 in0.0 mm 0.00 in0.0 mm 0.02 in0.5 mm
04:00 AM 75.6°F24.2°C 61.2°F16.2°C 61% 1.0 mph ENE1.6 kmh ENE 2.0 mph3.2 kmh 29.79 in1008.8 mb 0.00 in0.0 mm 0.00 in0.0 mm 0.02 in0.5 mm
03:55 AM 76.2°F24.6°C 60.4°F15.8°C 58% Calm Calm 2.0 mph3.2 kmh 29.79 in1008.8 mb 0.00 in0.0 mm 0.00 in0.0 mm 0.02 in0.5 mm
03:50 AM 76.8°F24.9°C 60.4°F15.8°C 57% Calm Calm 2.0 mph3.2 kmh 29.79 in1008.8 mb 0.00 in0.0 mm 0.00 in0.0 mm 0.02 in0.5 mm
03:45 AM 77.2°F25.1°C 59.8°F15.4°C 55% Calm Calm 2.0 mph3.2 kmh 29.80 in1009.1 mb 0.00 in0.0 mm 0.00 in0.0 mm 0.02 in0.5 mm
03:40 AM 77.8°F25.4°C 60.4°F15.8°C 55% Calm Calm 2.0 mph3.2 kmh 29.80 in1009.1 mb 0.00 in0.0 mm 0.00 in0.0 mm 0.02 in0.5 mm
03:35 AM 78.4°F25.8°C 59.9°F15.5°C 53% Calm Calm -- 29.79 in1008.8 mb 0.00 in0.0 mm 0.00 in0.0 mm 0.02 in0.5 mm
03:30 AM 78.9°F26.1°C 60.3°F15.7°C 53% Calm Calm 6.0 mph9.7 kmh 29.79 in1008.8 mb 0.02 in0.5 mm 0.00 in0.0 mm 0.02 in0.5 mm
03:25 AM 79.3°F26.3°C 59.1°F15.1°C 50% Calm Calm 6.0 mph9.7 kmh 29.78 in1008.5 mb 0.02 in0.5 mm 0.00 in0.0 mm 0.02 in0.5 mm
03:20 AM 79.8°F26.6°C 58.4°F14.7°C 48% Calm Calm 6.0 mph9.7 kmh 29.78 in1008.5 mb 0.02 in0.5 mm 0.00 in0.0 mm 0.02 in0.5 mm
03:15 AM 80.0°F26.7°C 55.5°F13.1°C 43% 2.0 mph WSW3.2 kmh WSW 6.0 mph9.7 kmh 29.78 in1008.5 mb 0.02 in0.5 mm 0.00 in0.0 mm 0.02 in0.5 mm
03:10 AM 80.5°F26.9°C 56.0°F13.3°C 43% 1.0 mph SSW1.6 kmh SSW 4.0 mph6.4 kmh 29.78 in1008.5 mb 0.02 in0.5 mm 0.00 in0.0 mm 0.02 in0.5 mm
03:05 AM 80.7°F27.1°C 54.8°F12.7°C 41% 1.0 mph NW1.6 kmh NW 3.0 mph4.8 kmh 29.77 in1008.1 mb 0.02 in0.5 mm 0.00 in0.0 mm 0.02 in0.5 mm
03:00 AM 80.2°F26.8°C 55.1°F12.8°C 42% 2.0 mph NNE3.2 kmh NNE 25.0 mph40.2 kmh 29.77 in1008.1 mb 0.02 in0.5 mm 0.00 in0.0 mm 0.02 in0.5 mm
02:55 AM 79.4°F26.3°C 55.0°F12.8°C 43% 2.0 mph N3.2 kmh N 25.0 mph40.2 kmh 29.77 in1008.1 mb 0.02 in0.5 mm 0.00 in0.0 mm 0.02 in0.5 mm
02:50 AM 78.5°F25.8°C 55.4°F13.0°C 45% 5.0 mph NE8.0 kmh NE 25.0 mph40.2 kmh 29.78 in1008.5 mb 0.02 in0.5 mm 0.00 in0.0 mm 0.02 in0.5 mm
02:45 AM 77.4°F25.2°C 56.2°F13.4°C 48% 6.0 mph N9.7 kmh N 24.0 mph38.6 kmh 29.77 in1008.1 mb 0.02 in0.5 mm 0.00 in0.0 mm 0.02 in0.5 mm
02:40 AM 76.6°F24.8°C 57.1°F13.9°C 51% 3.0 mph N4.8 kmh N 24.0 mph38.6 kmh 29.78 in1008.5 mb 0.02 in0.5 mm 0.00 in0.0 mm 0.02 in0.5 mm
02:35 AM 75.8°F24.3°C 58.5°F14.7°C 55% 5.0 mph N8.0 kmh N 24.0 mph38.6 kmh 29.78 in1008.5 mb 0.02 in0.5 mm 0.00 in0.0 mm 0.02 in0.5 mm
02:30 AM 75.2°F24.0°C 59.4°F15.2°C 58% 3.0 mph N4.8 kmh N 19.0 mph30.6 kmh 29.78 in1008.5 mb 0.02 in0.5 mm 0.00 in0.0 mm 0.02 in0.5 mm
02:25 AM 75.3°F24.1°C 60.0°F15.6°C 59% 4.0 mph NNE6.4 kmh NNE 19.0 mph30.6 kmh 29.79 in1008.8 mb 0.02 in0.5 mm 0.00 in0.0 mm 0.02 in0.5 mm
02:20 AM 75.5°F24.2°C 60.2°F15.7°C 59% 4.0 mph NNE6.4 kmh NNE 15.0 mph24.1 kmh 29.80 in1009.1 mb 0.02 in0.5 mm 0.00 in0.0 mm 0.02 in0.5 mm
02:15 AM 76.1°F24.5°C 60.8°F16.0°C 59% 2.0 mph NNE3.2 kmh NNE 13.0 mph20.9 kmh 29.81 in1009.5 mb 0.02 in0.5 mm 0.00 in0.0 mm 0.02 in0.5 mm
02:10 AM 77.2°F25.1°C 60.3°F15.7°C 56% 3.0 mph NNE4.8 kmh NNE 12.0 mph19.3 kmh 29.81 in1009.5 mb 0.02 in0.5 mm 0.12 in3.0 mm 0.02 in0.5 mm
02:05 AM 78.2°F25.7°C 59.7°F15.4°C 53% 3.0 mph NNE4.8 kmh NNE 10.0 mph16.1 kmh 29.83 in1010.2 mb 0.01 in0.3 mm 0.12 in3.0 mm 0.01 in0.3 mm
02:00 AM 77.7°F25.4°C 57.6°F14.2°C 50% 6.0 mph N9.7 kmh N 17.0 mph27.4 kmh 29.84 in1010.5 mb 0.00 in0.0 mm 0.00 in0.0 mm 0.00 in0.0 mm
01:55 AM 76.3°F24.6°C 56.3°F13.5°C 50% 4.0 mph NNE6.4 kmh NNE 15.0 mph24.1 kmh 29.84 in1010.5 mb 0.00 in0.0 mm 0.00 in0.0 mm 0.00 in0.0 mm
01:50 AM 74.7°F23.7°C 54.3°F12.4°C 49% 8.0 mph N12.9 kmh N 15.0 mph24.1 kmh 29.84 in1010.5 mb 0.00 in0.0 mm 0.00 in0.0 mm 0.00 in0.0 mm
01:45 AM 73.3°F22.9°C 53.6°F12.0°C 50% 5.0 mph NE8.0 kmh NE 11.0 mph17.7 kmh 29.85 in1010.8 mb 0.00 in0.0 mm 0.00 in0.0 mm 0.00 in0.0 mm
01:40 AM 73.0°F22.8°C 54.9°F12.7°C 53% 3.0 mph NNE4.8 kmh NNE 5.0 mph8.0 kmh 29.85 in1010.8 mb 0.00 in0.0 mm 0.00 in0.0 mm 0.00 in0.0 mm
01:35 AM 72.9°F22.7°C 54.8°F12.7°C 53% 1.0 mph S1.6 kmh S 2.0 mph3.2 kmh 29.85 in1010.8 mb 0.00 in0.0 mm 0.00 in0.0 mm 0.00 in0.0 mm
01:30 AM 72.8°F22.7°C 54.7°F12.6°C 53% 3.0 mph S4.8 kmh S 3.0 mph4.8 kmh 29.85 in1010.8 mb 0.00 in0.0 mm 0.00 in0.0 mm 0.00 in0.0 mm
01:25 AM 72.7°F22.6°C 54.1°F12.3°C 52% Calm Calm 3.0 mph4.8 kmh 29.84 in1010.5 mb 0.00 in0.0 mm 0.00 in0.0 mm 0.00 in0.0 mm
01:20 AM 72.6°F22.6°C 53.5°F11.9°C 51% Calm Calm 3.0 mph4.8 kmh 29.84 in1010.5 mb 0.00 in0.0 mm 0.00 in0.0 mm 0.00 in0.0 mm
01:15 AM 72.5°F22.5°C 53.4°F11.9°C 51% Calm Calm 3.0 mph4.8 kmh 29.83 in1010.2 mb 0.00 in0.0 mm 0.00 in0.0 mm 0.00 in0.0 mm
01:10 AM 72.4°F22.4°C 53.3°F11.8°C 51% Calm Calm 3.0 mph4.8 kmh 29.83 in1010.2 mb 0.00 in0.0 mm 0.00 in0.0 mm 0.00 in0.0 mm
01:05 AM 72.3°F22.4°C 53.2°F11.8°C 51% 2.0 mph S3.2 kmh S 2.0 mph3.2 kmh 29.84 in1010.5 mb 0.00 in0.0 mm 0.00 in0.0 mm 0.00 in0.0 mm
01:00 AM 72.2°F22.3°C 53.1°F11.7°C 51% 2.0 mph S3.2 kmh S 4.0 mph6.4 kmh 29.84 in1010.5 mb 0.00 in0.0 mm 0.00 in0.0 mm 0.00 in0.0 mm
12:55 AM 72.2°F22.3°C 53.1°F11.7°C 51% Calm Calm 4.0 mph6.4 kmh 29.83 in1010.2 mb 0.00 in0.0 mm 0.00 in0.0 mm 0.00 in0.0 mm
12:50 AM 72.2°F22.3°C 53.1°F11.7°C 51% Calm Calm 4.0 mph6.4 kmh 29.83 in1010.2 mb 0.00 in0.0 mm 0.00 in0.0 mm 0.00 in0.0 mm
12:45 AM 72.2°F22.3°C 52.6°F11.4°C 50% Calm Calm 4.0 mph6.4 kmh 29.83 in1010.2 mb 0.00 in0.0 mm 0.00 in0.0 mm 0.00 in0.0 mm
12:40 AM 72.2°F22.3°C 52.0°F11.1°C 49% 3.0 mph S4.8 kmh S 3.0 mph4.8 kmh 29.82 in1009.8 mb 0.00 in0.0 mm 0.00 in0.0 mm 0.00 in0.0 mm
12:35 AM 72.2°F22.3°C 52.0°F11.1°C 49% Calm Calm -- 29.81 in1009.5 mb 0.00 in0.0 mm 0.00 in0.0 mm 0.00 in0.0 mm
12:30 AM 72.3°F22.4°C 52.1°F11.2°C 49% Calm Calm 2.0 mph3.2 kmh 29.81 in1009.5 mb 0.00 in0.0 mm 0.00 in0.0 mm 0.00 in0.0 mm
12:25 AM 72.3°F22.4°C 52.1°F11.2°C 49% Calm Calm 2.0 mph3.2 kmh 29.82 in1009.8 mb 0.00 in0.0 mm 0.00 in0.0 mm 0.00 in0.0 mm
12:20 AM 72.3°F22.4°C 52.1°F11.2°C 49% Calm Calm 2.0 mph3.2 kmh 29.81 in1009.5 mb 0.00 in0.0 mm 0.00 in0.0 mm 0.00 in0.0 mm
12:15 AM 72.3°F22.4°C 51.5°F10.8°C 48% 1.0 mph S1.6 kmh S 2.0 mph3.2 kmh 29.81 in1009.5 mb 0.00 in0.0 mm 0.00 in0.0 mm 0.00 in0.0 mm
12:10 AM 72.3°F22.4°C 51.0°F10.6°C 47% Calm Calm 2.0 mph3.2 kmh 29.81 in1009.5 mb 0.00 in0.0 mm 0.00 in0.0 mm 0.00 in0.0 mm
12:05 AM 72.4°F22.4°C 50.5°F10.3°C 46% Calm Calm 2.0 mph3.2 kmh 29.82 in1009.8 mb 0.00 in0.0 mm 0.00 in0.0 mm 0.00 in0.0 mm
12:00 AM 72.5°F22.5°C 50.0°F10.0°C 45% Calm Calm 1.0 mph1.6 kmh 29.83 in1010.2 mb 0.00 in0.0 mm 0.00 in0.0 mm 0.00 in0.0 mm